Natural Bridge, Virginia
Current Conditions -  °F | °C
As of 8:55 PM on Saturday 20 Dec 2014 (Local Time) from KHSP Reporting Station
Overcast Overcast  
Wind Chill: 22°   Ceiling: 4000
Heat Index: 30°   Visibility: 7mi
Dew Point: 30°   Wind: 9mph
Humidity: 100%   Direction: 270°W
Pressure: 30.1"   Gusts: NA
Location:  37.63°N, 79.54°W
Report Text: KHSP 210155Z AUTO 27008KT 7SM OVC040 M01/M01 A3010 RMK AO2 T10101010
Loading
Personal Weather Stations






























Interactive Weather Map New forecast layout! Learn more

10-Day Weather Forecast

Advertisements
Track Severe Weather on mobile